Time;durP1;ratioP1;P1;durP2;ratioP2;P2;SDS_P1;SDS_P2;PMS_P1;PMS_P2;Temp;Humidity;BMP_temperature;BMP_pressure;BME280_temperature;BME280_humidity;BME280_pressure;Samples;Min_cycle;Max_cycle;Signal;HPM_P1;HPM_P2
2023/09/15 00:02:03;;;;;;;6.03;5.43;;;;;;;17.93;100.00;100692.91;5588169;31;34789;-69
2023/09/15 00:05:08;;;;;;;10.90;6.07;;;;;;;17.95;100.00;100690.84;5590176;31;34579;-70
2023/09/15 00:08:11;;;;;;;7.32;5.68;;;;;;;17.87;100.00;100696.41;5590701;31;33800;-70
2023/09/15 00:11:15;;;;;;;8.27;5.62;;;;;;;17.79;100.00;100698.28;5589989;31;34630;-69
2023/09/15 00:14:18;;;;;;;7.22;5.68;;;;;;;17.71;100.00;100697.66;5590987;31;34597;-70
2023/09/15 00:17:24;;;;;;;8.85;5.55;;;;;;;17.73;100.00;100704.47;5590978;31;34050;-69
2023/09/15 00:20:27;;;;;;;6.05;5.45;;;;;;;17.78;100.00;100696.62;5590755;31;33801;-69
2023/09/15 00:23:30;;;;;;;6.57;5.60;;;;;;;17.88;100.00;100698.06;5590512;31;34564;-70
2023/09/15 00:26:33;;;;;;;6.87;5.60;;;;;;;17.83;100.00;100703.22;5590668;31;33819;-69
2023/09/15 00:29:36;;;;;;;6.82;5.20;;;;;;;17.88;100.00;100703.44;5590539;31;34629;-69
2023/09/15 00:32:39;;;;;;;6.82;5.40;;;;;;;17.89;100.00;100703.22;5590519;31;34470;-70
2023/09/15 00:35:44;;;;;;;8.25;5.00;;;;;;;17.86;100.00;100708.19;5590541;31;34523;-70
2023/09/15 00:38:46;;;;;;;6.57;5.10;;;;;;;17.85;100.00;100703.84;5590362;31;33984;-70
2023/09/15 00:41:51;;;;;;;7.00;5.15;;;;;;;17.74;100.00;100716.84;5590358;31;33997;-69
2023/09/15 00:44:56;;;;;;;7.37;4.97;;;;;;;17.73;100.00;100715.19;5590380;31;33879;-69
2023/09/15 00:48:00;;;;;;;5.28;4.20;;;;;;;17.74;100.00;100726.75;5590325;31;33809;-69
2023/09/15 00:51:07;;;;;;;5.35;4.25;;;;;;;17.88;100.00;100727.59;5590391;31;33752;-70
2023/09/15 00:54:12;;;;;;;6.82;4.90;;;;;;;17.86;100.00;100725.13;5590358;31;33899;-69
2023/09/15 00:57:15;;;;;;;5.80;4.78;;;;;;;17.75;100.00;100726.56;5590220;31;33840;-70
2023/09/15 01:00:19;;;;;;;6.37;4.70;;;;;;;17.72;100.00;100720.75;5590173;31;34168;-70
2023/09/15 01:03:24;;;;;;;6.90;4.85;;;;;;;17.70;100.00;100718.31;5590487;31;34514;-70
2023/09/15 01:06:29;;;;;;;7.43;5.05;;;;;;;17.78;100.00;100726.16;5590279;31;33805;-70
2023/09/15 01:09:32;;;;;;;7.47;5.00;;;;;;;17.87;100.00;100715.19;5590125;31;33836;-69
2023/09/15 01:12:35;;;;;;;6.03;4.95;;;;;;;17.75;100.00;100718.50;5590146;31;33840;-69
2023/09/15 01:15:58;;;;;;;6.20;4.95;;;;;;;17.70;100.00;100722.84;5589030;31;33772;-69
2023/09/15 01:19:31;;;;;;;5.20;4.60;;;;;;;17.72;100.00;100735.00;5590181;31;33875;-69
2023/09/15 01:22:53;;;;;;;6.87;5.47;;;;;;;17.69;100.00;100727.38;5590365;31;33728;-69
2023/09/15 01:26:03;;;;;;;7.20;5.18;;;;;;;17.68;100.00;100736.47;5590002;31;33959;-69
2023/09/15 01:29:28;;;;;;;7.03;5.25;;;;;;;17.70;100.00;100738.94;5590039;31;33806;-70
2023/09/15 01:32:33;;;;;;;5.85;5.25;;;;;;;17.62;100.00;100734.59;5589938;31;34001;-69
2023/09/15 01:35:36;;;;;;;6.87;5.45;;;;;;;17.58;100.00;100741.38;5590037;31;34536;-69
2023/09/15 01:38:39;;;;;;;7.45;5.37;;;;;;;17.55;100.00;100739.09;5589948;31;33903;-70
2023/09/15 01:41:42;;;;;;;8.25;5.47;;;;;;;17.51;100.00;100737.88;5589783;31;33883;-69
2023/09/15 01:44:45;;;;;;;10.70;5.60;;;;;;;17.51;100.00;100740.53;5589945;31;34441;-70
2023/09/15 01:47:48;;;;;;;6.87;4.97;;;;;;;17.47;100.00;100735.78;5589837;31;33957;-70
2023/09/15 01:50:53;;;;;;;8.40;5.18;;;;;;;17.38;100.00;100738.66;5589787;31;33799;-69
2023/09/15 01:53:57;;;;;;;6.22;5.10;;;;;;;17.36;100.00;100735.34;5589780;31;33956;-70
2023/09/15 01:56:59;;;;;;;9.10;5.57;;;;;;;17.32;100.00;100742.16;5589743;31;34580;-69
2023/09/15 02:00:04;;;;;;;5.40;4.62;;;;;;;17.27;100.00;100739.25;5589975;31;34622;-69
2023/09/15 02:03:13;;;;;;;6.85;4.90;;;;;;;17.25;100.00;100746.66;5589550;31;33991;-69
2023/09/15 02:06:16;;;;;;;5.95;5.43;;;;;;;17.26;100.00;100747.50;5589891;31;33884;-69
2023/09/15 02:09:20;;;;;;;7.47;5.35;;;;;;;17.23;100.00;100755.97;5589639;31;34785;-69
2023/09/15 02:12:22;;;;;;;7.10;5.35;;;;;;;17.04;100.00;100746.00;5589846;31;34885;-69
2023/09/15 02:15:25;;;;;;;6.32;5.40;;;;;;;17.04;100.00;100751.34;5589525;31;34627;-69
2023/09/15 02:18:31;;;;;;;7.85;5.60;;;;;;;16.94;100.00;100741.81;5589526;31;34234;-70
2023/09/15 02:21:33;;;;;;;7.12;6.07;;;;;;;16.83;100.00;100749.63;5589521;31;34550;-70
2023/09/15 02:24:36;;;;;;;8.60;6.43;;;;;;;16.79;100.00;100753.72;5589919;31;34397;-70
2023/09/15 02:27:39;;;;;;;7.87;6.10;;;;;;;16.73;100.00;100759.88;5589206;31;34553;-70
2023/09/15 02:30:42;;;;;;;8.15;6.62;;;;;;;16.67;100.00;100756.13;5589537;31;34547;-70
2023/09/15 02:33:45;;;;;;;8.23;6.50;;;;;;;16.62;100.00;100747.03;5589262;31;34058;-70
2023/09/15 02:36:48;;;;;;;8.98;6.72;;;;;;;16.52;100.00;100750.88;5589321;31;33895;-70
2023/09/15 02:39:51;;;;;;;8.93;7.00;;;;;;;16.43;100.00;100749.37;5589216;31;34007;-69
2023/09/15 02:42:54;;;;;;;10.27;7.20;;;;;;;16.45;100.00;100752.69;5589306;31;33917;-69
2023/09/15 02:46:04;;;;;;;7.90;7.10;;;;;;;16.49;100.00;100759.31;5589502;31;34705;-70
2023/09/15 02:49:08;;;;;;;9.90;7.15;;;;;;;16.41;100.00;100751.41;5589249;31;34854;-70
2023/09/15 02:52:12;;;;;;;8.88;7.43;;;;;;;16.35;100.00;100754.88;5589673;31;34858;-70
2023/09/15 02:55:17;;;;;;;8.70;7.85;;;;;;;16.35;100.00;100751.38;5589259;31;33796;-70
2023/09/15 02:58:21;;;;;;;9.07;7.75;;;;;;;16.34;100.00;100763.94;5589159;31;33906;-70
2023/09/15 03:01:24;;;;;;;9.45;7.35;;;;;;;16.26;100.00;100764.09;5589026;31;34565;-70
2023/09/15 03:04:28;;;;;;;8.98;8.07;;;;;;;16.22;100.00;100764.66;5588953;31;34060;-70
2023/09/15 03:07:31;;;;;;;9.15;7.90;;;;;;;16.18;100.00;100764.22;5589040;31;34562;-70
2023/09/15 03:10:34;;;;;;;11.57;7.95;;;;;;;16.15;100.00;100761.94;5588944;31;34060;-70
2023/09/15 03:13:38;;;;;;;8.13;7.32;;;;;;;16.16;100.00;100766.28;5588937;31;33942;-70
2023/09/15 03:16:43;;;;;;;8.73;6.93;;;;;;;16.16;100.00;100763.59;5588855;31;34593;-70
2023/09/15 03:19:47;;;;;;;10.85;6.95;;;;;;;16.09;100.00;100763.56;5588891;31;34495;-70
2023/09/15 03:22:51;;;;;;;9.30;7.37;;;;;;;16.13;100.00;100760.47;5588718;31;34062;-70
2023/09/15 03:26:02;;;;;;;9.80;6.82;;;;;;;16.12;100.00;100762.31;5587875;31;33910;-70
2023/09/15 03:29:05;;;;;;;8.82;6.97;;;;;;;16.18;100.00;100761.56;5587937;31;33762;-70
2023/09/15 03:32:08;;;;;;;8.70;6.85;;;;;;;16.13;100.00;100758.63;5588535;31;34660;-70
2023/09/15 03:35:11;;;;;;;8.43;7.20;;;;;;;16.17;100.00;100764.44;5588612;31;34124;-70
2023/09/15 03:38:14;;;;;;;11.52;8.13;;;;;;;16.09;100.00;100770.75;5588962;31;34573;-69
2023/09/15 03:41:17;;;;;;;8.23;7.32;;;;;;;16.01;100.00;100761.03;5590845;31;33902;-69
2023/09/15 03:44:22;;;;;;;8.50;7.32;;;;;;;16.01;100.00;100765.53;5590908;31;33976;-70
2023/09/15 03:47:25;;;;;;;10.30;7.90;;;;;;;16.12;100.00;100761.53;5590766;31;34471;-70
2023/09/15 03:50:31;;;;;;;11.98;7.68;;;;;;;16.14;100.00;100762.13;5590903;31;33857;-70
2023/09/15 03:53:34;;;;;;;9.30;7.05;;;;;;;16.22;100.00;100776.19;5591068;31;33864;-70
2023/09/15 03:56:36;;;;;;;9.60;7.53;;;;;;;16.29;100.00;100776.25;5590878;31;33940;-70
2023/09/15 03:59:39;;;;;;;7.47;6.65;;;;;;;16.35;100.00;100779.00;5590940;31;33973;-71
2023/09/15 04:02:43;;;;;;;9.95;7.18;;;;;;;16.35;100.00;100780.84;5590765;31;33942;-71
2023/09/15 04:05:47;;;;;;;10.00;7.32;;;;;;;16.33;100.00;100778.34;5590583;31;34798;-71
2023/09/15 04:08:50;;;;;;;10.25;6.62;;;;;;;16.34;100.00;100780.00;5590717;31;34654;-71
2023/09/15 04:11:57;;;;;;;10.00;6.87;;;;;;;16.40;100.00;100786.44;5590511;31;33943;-71
2023/09/15 04:15:00;;;;;;;9.40;7.10;;;;;;;16.46;100.00;100785.63;5590832;31;34132;-72
2023/09/15 04:18:07;;;;;;;8.05;7.05;;;;;;;16.52;100.00;100782.16;5590911;31;34097;-72
2023/09/15 04:21:10;;;;;;;8.25;7.45;;;;;;;16.65;100.00;100790.34;5591015;31;33834;-71
2023/09/15 04:24:14;;;;;;;9.57;7.12;;;;;;;16.65;100.00;100787.66;5590680;31;34557;-71
2023/09/15 04:27:16;;;;;;;11.43;6.95;;;;;;;16.53;100.00;100792.69;5590944;31;34073;-72
2023/09/15 04:30:19;;;;;;;7.85;6.93;;;;;;;16.68;100.00;100787.25;5590596;31;34573;-72
2023/09/15 04:33:23;;;;;;;7.28;6.32;;;;;;;16.70;100.00;100785.19;5590456;31;34590;-72
2023/09/15 04:36:26;;;;;;;9.75;6.62;;;;;;;16.74;100.00;100782.97;5590099;31;34616;-71
2023/09/15 04:39:29;;;;;;;9.05;6.60;;;;;;;16.82;100.00;100780.94;5590356;31;34009;-71
2023/09/15 04:42:40;;;;;;;7.70;6.00;;;;;;;16.84;100.00;100780.75;5590778;31;34879;-71
2023/09/15 04:45:43;;;;;;;8.63;6.40;;;;;;;16.90;100.00;100786.13;5589951;31;34593;-72
2023/09/15 04:48:47;;;;;;;14.80;6.85;;;;;;;16.98;100.00;100787.00;5590510;31;34655;-71
2023/09/15 04:51:51;;;;;;;8.98;6.53;;;;;;;17.03;100.00;100782.69;5589667;31;33828;-72
2023/09/15 04:54:56;;;;;;;10.07;6.53;;;;;;;17.12;100.00;100788.69;5590437;31;34903;-72
2023/09/15 04:57:59;;;;;;;8.40;5.75;;;;;;;17.19;100.00;100785.00;5590225;31;35505;-71
2023/09/15 05:01:03;;;;;;;9.05;6.22;;;;;;;17.27;100.00;100786.69;5590196;31;33950;-72
2023/09/15 05:04:10;;;;;;;10.43;6.22;;;;;;;17.44;100.00;100777.25;5590105;31;34549;-72
2023/09/15 05:07:13;;;;;;;11.05;6.30;;;;;;;17.52;100.00;100777.06;5589982;31;34669;-71
2023/09/15 05:10:17;;;;;;;8.35;6.60;;;;;;;17.62;100.00;100782.87;5590087;31;33847;-71
2023/09/15 05:13:20;;;;;;;10.80;6.60;;;;;;;17.67;100.00;100782.31;5589840;31;33906;-72
2023/09/15 05:16:23;;;;;;;7.45;6.07;;;;;;;17.76;100.00;100789.13;5589833;31;33790;-72
2023/09/15 05:19:26;;;;;;;9.40;6.72;;;;;;;17.93;100.00;100789.53;5589423;31;33913;-71
2023/09/15 05:22:29;;;;;;;10.32;6.10;;;;;;;17.90;100.00;100792.63;5589138;31;33866;-72
2023/09/15 05:25:34;;;;;;;6.90;5.80;;;;;;;18.14;100.00;100797.41;5589881;31;33994;-71
2023/09/15 05:28:38;;;;;;;6.60;5.72;;;;;;;18.21;100.00;100799.03;5589672;31;33788;-72
2023/09/15 05:31:41;;;;;;;7.78;5.90;;;;;;;18.28;100.00;100800.91;5590216;31;33992;-72
2023/09/15 05:34:44;;;;;;;6.43;5.80;;;;;;;18.28;100.00;100807.09;5589718;31;33815;-71
2023/09/15 05:37:48;;;;;;;6.60;5.82;;;;;;;18.03;100.00;100808.75;5589375;31;34749;-72
2023/09/15 05:40:51;;;;;;;7.60;6.20;;;;;;;18.04;100.00;100805.88;5588856;31;33823;-72
2023/09/15 05:43:54;;;;;;;7.60;6.43;;;;;;;18.02;100.00;100809.78;5589297;31;33895;-71
2023/09/15 05:46:59;;;;;;;9.32;6.75;;;;;;;17.88;100.00;100813.47;5589187;31;34024;-72
2023/09/15 05:50:04;;;;;;;12.32;7.85;;;;;;;17.76;100.00;100813.28;5589426;31;33898;-72
2023/09/15 05:53:07;;;;;;;9.63;8.07;;;;;;;17.73;100.00;100817.16;5589389;31;33879;-72
2023/09/15 05:56:11;;;;;;;15.30;8.98;;;;;;;17.73;100.00;100808.28;5588697;31;34347;-72
2023/09/15 05:59:13;;;;;;;11.48;9.15;;;;;;;17.54;100.00;100817.91;5588701;31;34538;-73
2023/09/15 06:02:18;;;;;;;14.13;8.82;;;;;;;17.49;100.00;100811.50;5588689;31;33972;-72
2023/09/15 06:05:24;;;;;;;16.83;9.70;;;;;;;17.51;100.00;100815.66;5589166;31;33970;-72
2023/09/15 06:08:28;;;;;;;13.73;9.40;;;;;;;17.63;100.00;100819.41;5589087;31;34206;-72
2023/09/15 06:11:32;;;;;;;10.70;9.50;;;;;;;17.93;100.00;100811.84;5589057;31;34559;-72
2023/09/15 06:14:37;;;;;;;12.95;9.02;;;;;;;18.24;100.00;100812.06;5588716;31;33768;-71
2023/09/15 06:17:42;;;;;;;14.30;9.00;;;;;;;18.52;100.00;100816.37;5588618;31;33802;-72
2023/09/15 06:20:45;;;;;;;11.40;8.95;;;;;;;18.84;100.00;100820.03;5588973;31;33747;-72
2023/09/15 06:23:48;;;;;;;11.57;8.88;;;;;;;19.12;100.00;100821.41;5588436;31;34072;-72
2023/09/15 06:26:52;;;;;;;10.20;8.75;;;;;;;19.27;100.00;100825.69;5590559;31;33832;-71
2023/09/15 06:29:55;;;;;;;10.48;8.80;;;;;;;19.48;100.00;100817.34;5588610;31;34585;-71
2023/09/15 06:32:58;;;;;;;12.30;8.20;;;;;;;19.65;100.00;100829.28;5588867;31;34078;-71
2023/09/15 06:36:01;;;;;;;14.95;8.18;;;;;;;19.67;100.00;100832.56;5589217;31;33952;-71
2023/09/15 06:39:06;;;;;;;11.38;6.87;;;;;;;20.20;100.00;100829.50;5588792;31;34141;-71
2023/09/15 06:42:10;;;;;;;8.43;6.72;;;;;;;20.34;100.00;100842.66;5588468;31;34095;-72
2023/09/15 06:45:16;;;;;;;12.80;6.93;;;;;;;20.40;100.00;100835.56;5588579;31;34011;-72
2023/09/15 06:48:19;;;;;;;11.85;6.50;;;;;;;20.52;100.00;100839.22;5587994;31;35045;-72
2023/09/15 06:51:22;;;;;;;9.13;7.62;;;;;;;20.53;100.00;100832.75;5589427;31;33782;-72
2023/09/15 06:54:25;;;;;;;8.85;7.15;;;;;;;20.71;100.00;100832.81;5588438;31;34647;-72
2023/09/15 06:57:28;;;;;;;9.00;6.10;;;;;;;21.15;100.00;100830.91;5588854;31;34526;-72
2023/09/15 07:00:31;;;;;;;9.75;6.05;;;;;;;21.84;100.00;100834.94;5588253;31;33891;-73
2023/09/15 07:03:34;;;;;;;12.95;5.75;;;;;;;22.29;100.00;100833.41;5588928;31;34308;-72
2023/09/15 07:06:38;;;;;;;7.62;5.20;;;;;;;23.54;100.00;100836.47;5587953;31;34203;-72
2023/09/15 07:09:41;;;;;;;6.57;4.87;;;;;;;24.23;100.00;100839.91;5587652;31;35178;-72
2023/09/15 07:12:44;;;;;;;7.20;4.60;;;;;;;24.55;100.00;100834.69;5588337;31;32068;-73
2023/09/15 07:15:47;;;;;;;7.35;4.55;;;;;;;24.96;100.00;100841.56;5588615;31;34511;-72
2023/09/15 07:18:51;;;;;;;8.43;4.25;;;;;;;25.48;95.49;100841.91;5588707;31;33849;-72
2023/09/15 07:21:53;;;;;;;8.63;4.43;;;;;;;26.24;78.58;100842.69;5588812;31;34526;-72
2023/09/15 07:24:56;;;;;;;9.30;3.78;;;;;;;26.54;78.19;100844.84;5588085;31;33924;-71
2023/09/15 07:27:59;;;;;;;6.87;4.32;;;;;;;26.82;74.04;100844.47;5588249;31;34577;-73
2023/09/15 07:31:04;;;;;;;5.50;4.70;;;;;;;25.02;88.45;100844.09;5588666;31;34053;-71
2023/09/15 07:34:06;;;;;;;7.72;4.50;;;;;;;25.61;81.00;100843.47;5588890;31;33838;-71
2023/09/15 07:37:09;;;;;;;6.07;3.25;;;;;;;27.38;71.67;100847.50;5588499;31;34589;-72
2023/09/15 07:40:12;;;;;;;3.58;2.33;;;;;;;27.40;60.73;100853.50;5588097;31;34202;-72
2023/09/15 07:43:16;;;;;;;7.47;3.00;;;;;;;26.35;62.01;100849.88;5587834;31;33810;-72
2023/09/15 07:46:19;;;;;;;5.22;3.10;;;;;;;27.61;58.38;100849.75;5587742;31;33935;-73
2023/09/15 07:49:22;;;;;;;5.28;3.50;;;;;;;29.54;54.31;100864.03;5588087;31;33934;-71
2023/09/15 07:52:27;;;;;;;5.93;4.40;;;;;;;28.03;55.90;100855.81;5587725;31;33919;-72
2023/09/15 07:55:31;;;;;;;6.72;4.30;;;;;;;27.10;61.03;100851.47;5587719;31;33881;-71
2023/09/15 07:58:33;;;;;;;7.30;4.00;;;;;;;28.37;60.03;100850.66;5587729;31;34005;-71
2023/09/15 08:01:37;;;;;;;4.80;3.70;;;;;;;29.32;55.51;100850.75;5587810;31;34000;-72
2023/09/15 08:04:41;;;;;;;4.50;2.80;;;;;;;29.72;52.92;100850.56;5587724;31;34121;-72
2023/09/15 08:07:45;;;;;;;4.62;3.00;;;;;;;28.97;53.75;100846.22;5587800;31;33848;-72
2023/09/15 08:10:48;;;;;;;5.60;2.55;;;;;;;29.01;52.35;100855.50;5587919;31;34102;-71
2023/09/15 08:13:51;;;;;;;8.57;2.65;;;;;;;29.89;48.98;100850.19;5587204;31;33849;-73
2023/09/15 08:16:54;;;;;;;6.05;2.50;;;;;;;27.73;54.51;100836.72;5587405;31;33957;-73
2023/09/15 08:19:58;;;;;;;3.42;2.47;;;;;;;29.96;49.36;100839.75;5587823;31;34504;-72
2023/09/15 08:23:03;;;;;;;4.35;2.70;;;;;;;29.55;48.95;100833.69;5586879;31;34114;-71
2023/09/15 08:26:06;;;;;;;8.90;2.78;;;;;;;29.26;50.11;100828.06;5589835;31;33835;-73
2023/09/15 08:29:11;;;;;;;6.87;3.05;;;;;;;31.88;44.49;100837.59;5589948;31;33748;-71
2023/09/15 08:32:14;;;;;;;5.37;3.30;;;;;;;29.40;50.68;100835.69;5590284;31;33792;-72
2023/09/15 08:35:18;;;;;;;7.47;3.00;;;;;;;29.11;53.29;100828.12;5590453;31;33764;-73
2023/09/15 08:38:21;;;;;;;8.27;2.70;;;;;;;30.40;48.62;100834.19;5589100;31;34792;-72
2023/09/15 08:41:31;;;;;;;4.90;2.35;;;;;;;31.14;46.55;100843.81;5590032;31;34072;-72
2023/09/15 08:44:34;;;;;;;4.18;2.10;;;;;;;32.18;43.18;100839.06;5590165;31;33972;-72
2023/09/15 08:47:42;;;;;;;8.52;2.30;;;;;;;34.17;40.06;100836.59;5589816;31;33855;-74
2023/09/15 08:50:46;;;;;;;6.75;2.25;;;;;;;35.13;38.26;100832.06;5589535;31;35285;-73
2023/09/15 08:53:52;;;;;;;4.10;2.05;;;;;;;34.63;37.88;100834.28;5590153;31;34465;-71
2023/09/15 08:56:55;;;;;;;4.87;2.28;;;;;;;28.91;47.06;100823.56;5589988;31;34609;-71
2023/09/15 08:59:59;;;;;;;4.45;1.98;;;;;;;26.52;54.51;100817.09;5590297;31;33953;-71
2023/09/15 09:03:04;;;;;;;4.05;1.87;;;;;;;25.49;59.30;100816.41;5589158;31;33843;-71
2023/09/15 09:06:09;;;;;;;4.12;2.12;;;;;;;25.37;62.14;100813.81;5589867;31;34199;-70
2023/09/15 09:09:14;;;;;;;2.83;2.37;;;;;;;24.42;64.28;100816.87;5589876;31;34031;-70
2023/09/15 09:12:20;;;;;;;6.10;2.85;;;;;;;24.34;70.44;100817.31;5590045;31;34775;-72
2023/09/15 09:15:25;;;;;;;4.87;2.35;;;;;;;24.57;70.77;100803.53;5589945;31;33915;-71
2023/09/15 09:18:29;;;;;;;4.28;2.40;;;;;;;24.42;74.60;100813.34;5589854;31;34301;-71
2023/09/15 09:21:32;;;;;;;12.48;2.62;;;;;;;23.82;70.52;100805.81;5589551;31;33971;-71
2023/09/15 09:24:36;;;;;;;6.30;1.87;;;;;;;24.15;73.05;100815.88;5589794;31;33841;-72
2023/09/15 09:27:39;;;;;;;4.32;1.85;;;;;;;23.99;63.03;100813.97;5588999;31;34363;-70
2023/09/15 09:30:42;;;;;;;12.13;2.00;;;;;;;23.74;64.15;100819.78;5590178;31;34575;-70
2023/09/15 09:33:45;;;;;;;32.67;3.08;;;;;;;23.77;69.69;100813.84;5589346;31;34464;-69
2023/09/15 09:36:52;;;;;;;4.55;2.10;;;;;;;24.07;69.62;100811.66;5588946;31;34089;-69
2023/09/15 09:39:55;;;;;;;3.78;2.35;;;;;;;23.61;70.96;100820.91;5589363;31;33900;-69
2023/09/15 09:42:58;;;;;;;4.60;2.42;;;;;;;23.40;75.90;100814.25;5590829;31;34185;-69
2023/09/15 09:46:04;;;;;;;5.60;2.37;;;;;;;23.39;75.91;100807.19;5589596;31;34560;-68
2023/09/15 09:49:09;;;;;;;5.60;2.53;;;;;;;23.03;81.16;100812.12;5589479;31;33225;-68
2023/09/15 09:52:13;;;;;;;4.28;2.37;;;;;;;23.01;82.04;100812.34;5589258;31;33846;-71
2023/09/15 09:55:16;;;;;;;4.18;2.37;;;;;;;23.07;86.98;100808.69;5589752;31;34426;-71
2023/09/15 09:58:21;;;;;;;6.05;2.70;;;;;;;23.09;84.98;100805.75;5589591;31;33841;-71
2023/09/15 10:01:24;;;;;;;5.15;2.50;;;;;;;23.10;80.32;100808.22;5588843;31;33966;-69
2023/09/15 10:04:28;;;;;;;3.08;2.37;;;;;;;23.06;82.33;100812.47;5590623;31;34492;-72
2023/09/15 10:07:31;;;;;;;4.62;2.47;;;;;;;23.53;83.25;100813.16;5589952;31;33543;-72
2023/09/15 10:10:40;;;;;;;2.80;2.17;;;;;;;23.71;76.50;100818.38;5575892;31;33753;-72
2023/09/15 10:13:44;;;;;;;4.25;2.55;;;;;;;23.67;70.16;100809.06;5589418;31;34148;-69
2023/09/15 10:16:48;;;;;;;2.35;2.00;;;;;;;23.16;74.30;100809.13;5589632;31;34053;-71
2023/09/15 10:19:53;;;;;;;3.20;1.90;;;;;;;23.37;72.83;100808.50;5589417;31;33871;-71
2023/09/15 10:22:57;;;;;;;5.70;2.17;;;;;;;23.43;69.08;100807.50;5588819;31;33863;-70
2023/09/15 10:26:02;;;;;;;5.22;2.00;;;;;;;23.84;69.91;100809.13;5589383;31;33963;-69
2023/09/15 10:29:04;;;;;;;6.55;2.10;;;;;;;24.06;68.47;100804.59;5589146;31;33871;-70
2023/09/15 10:32:07;;;;;;;3.30;2.00;;;;;;;24.42;67.27;100803.31;5588504;31;33784;-72
2023/09/15 10:35:11;;;;;;;2.65;2.00;;;;;;;25.32;65.46;100804.81;5589488;31;34462;-70
2023/09/15 10:38:26;;;;;;;2.83;1.98;;;;;;;25.68;61.09;100801.41;5589185;31;33883;-71
2023/09/15 10:41:29;;;;;;;3.12;1.73;;;;;;;26.46;58.72;100789.03;5575214;31;33787;-69
2023/09/15 10:44:32;;;;;;;3.70;1.50;;;;;;;26.00;55.09;100797.91;5589124;31;34332;-69
2023/09/15 10:47:39;;;;;;;2.67;1.85;;;;;;;25.24;56.09;100797.09;5588283;31;34241;-70
2023/09/15 10:50:41;;;;;;;1.62;1.42;;;;;;;25.42;57.35;100796.75;5588743;31;33930;-71
2023/09/15 10:53:47;;;;;;;6.00;1.80;;;;;;;25.37;54.44;100792.09;5588893;31;34509;-71
2023/09/15 10:56:50;;;;;;;4.70;1.83;;;;;;;25.30;55.42;100788.75;5588836;31;33910;-70
2023/09/15 10:59:57;;;;;;;5.72;1.77;;;;;;;25.19;56.83;100791.59;5588831;31;33850;-70
2023/09/15 11:03:03;;;;;;;3.83;1.62;;;;;;;25.15;57.88;100787.75;5588819;31;33868;-71
2023/09/15 11:06:13;;;;;;;2.60;1.70;;;;;;;25.20;58.11;100790.53;5588612;31;33744;-71
2023/09/15 11:09:16;;;;;;;3.77;1.60;;;;;;;26.27;55.88;100785.09;5588937;31;34131;-72
2023/09/15 11:12:19;;;;;;;4.37;1.35;;;;;;;30.79;44.15;100789.44;5588233;31;34878;-70
2023/09/15 11:15:22;;;;;;;4.05;1.67;;;;;;;33.76;35.75;100799.03;5588606;31;33962;-70
2023/09/15 11:18:26;;;;;;;5.40;1.50;;;;;;;35.43;32.90;100796.44;5589039;31;33856;-70
2023/09/15 11:21:29;;;;;;;2.55;1.55;;;;;;;34.34;33.61;100793.44;5589299;31;34522;-70
2023/09/15 11:24:33;;;;;;;4.75;1.60;;;;;;;32.57;36.15;100786.44;5588741;31;34602;-70
2023/09/15 11:27:37;;;;;;;2.62;1.52;;;;;;;32.38;37.45;100791.22;5588619;31;33856;-69
2023/09/15 11:30:42;;;;;;;5.43;1.65;;;;;;;31.45;39.13;100789.41;5588458;31;33793;-69
2023/09/15 11:33:45;;;;;;;2.75;1.75;;;;;;;30.01;41.34;100776.78;5587788;31;33888;-68
2023/09/15 11:36:50;;;;;;;3.10;1.77;;;;;;;27.47;48.17;100773.13;5588125;31;34829;-70
2023/09/15 11:39:54;;;;;;;2.17;1.60;;;;;;;26.09;52.46;100775.41;5588276;31;33948;-70
2023/09/15 11:43:01;;;;;;;3.87;1.70;;;;;;;25.46;54.95;100776.16;5588351;31;34149;-70
2023/09/15 11:46:07;;;;;;;3.00;1.73;;;;;;;27.80;49.86;100769.09;5587769;31;34132;-70
2023/09/15 11:49:11;;;;;;;3.50;1.65;;;;;;;30.97;42.02;100764.81;5587909;31;34653;-71
2023/09/15 11:52:17;;;;;;;2.65;1.50;;;;;;;33.75;36.64;100771.81;5588125;31;33794;-71
2023/09/15 11:55:22;;;;;;;2.62;1.40;;;;;;;37.33;31.02;100767.88;5588235;31;33928;-72
2023/09/15 11:58:25;;;;;;;2.92;1.40;;;;;;;39.29;27.72;100775.44;5588251;31;34161;-71
2023/09/15 12:01:31;;;;;;;1.77;1.40;;;;;;;37.34;29.37;100768.69;5590845;31;34498;-72
2023/09/15 12:04:34;;;;;;;4.85;1.90;;;;;;;36.09;31.08;100760.00;5590893;31;33796;-72
2023/09/15 12:07:37;;;;;;;3.40;1.33;;;;;;;37.95;28.41;100764.25;5590993;31;33807;-70
2023/09/15 12:10:42;;;;;;;2.22;1.23;;;;;;;37.58;28.67;100755.00;5590620;31;33827;-72
2023/09/15 12:13:52;;;;;;;2.35;1.20;;;;;;;39.75;26.25;100752.63;5589842;31;34006;-71
2023/09/15 12:16:57;;;;;;;2.45;1.40;;;;;;;41.67;22.87;100746.13;5590536;31;34203;-72
2023/09/15 12:20:04;;;;;;;1.73;1.27;;;;;;;40.27;24.68;100749.69;5590410;31;33868;-71
2023/09/15 12:23:13;;;;;;;1.67;1.40;;;;;;;33.32;33.26;100730.19;5590352;31;33928;-70
2023/09/15 12:26:17;;;;;;;5.47;1.62;;;;;;;29.25;40.64;100730.78;5590428;31;34450;-71
2023/09/15 12:29:23;;;;;;;4.07;1.52;;;;;;;28.28;43.64;100721.34;5590680;31;34453;-69
2023/09/15 12:32:26;;;;;;;1.73;1.45;;;;;;;26.89;47.23;100717.12;5590609;31;34570;-72
2023/09/15 12:35:30;;;;;;;2.50;1.58;;;;;;;26.77;47.67;100717.31;5590717;31;33919;-71
2023/09/15 12:38:33;;;;;;;4.97;1.50;;;;;;;25.88;50.92;100705.63;5590286;31;33885;-70
2023/09/15 12:41:35;;;;;;;5.57;1.80;;;;;;;25.21;51.95;100711.53;5590577;31;33986;-69
2023/09/15 12:44:38;;;;;;;3.03;1.77;;;;;;;25.10;53.55;100707.06;5590329;31;33931;-70
2023/09/15 12:47:42;;;;;;;2.85;1.80;;;;;;;24.81;55.88;100698.31;5590365;31;34020;-70
2023/09/15 12:50:45;;;;;;;3.33;1.80;;;;;;;24.89;55.93;100700.59;5590365;31;34603;-70
2023/09/15 12:53:48;;;;;;;4.62;1.98;;;;;;;24.95;56.90;100691.44;5589463;31;33989;-70
2023/09/15 12:56:53;;;;;;;4.65;1.50;;;;;;;25.02;56.33;100705.66;5590243;31;33958;-69
2023/09/15 12:59:56;;;;;;;3.10;1.58;;;;;;;24.52;57.32;100694.97;5590314;31;33817;-69
2023/09/15 13:02:59;;;;;;;2.17;1.40;;;;;;;24.35;57.29;100705.03;5590152;31;33863;-69
2023/09/15 13:06:02;;;;;;;4.20;1.50;;;;;;;24.22;57.77;100695.38;5590041;31;34732;-70
2023/09/15 13:09:05;;;;;;;2.62;1.48;;;;;;;24.25;58.14;100699.50;5589873;31;33805;-70
2023/09/15 13:12:08;;;;;;;9.45;2.00;;;;;;;24.81;57.07;100692.88;5589091;31;33806;-70
2023/09/15 13:15:11;;;;;;;3.10;1.90;;;;;;;25.66;54.72;100694.84;5589310;31;33747;-69
2023/09/15 13:18:16;;;;;;;5.43;2.20;;;;;;;26.17;51.76;100687.06;5589751;31;34100;-69
2023/09/15 13:21:19;;;;;;;2.92;1.98;;;;;;;26.30;52.45;100682.00;5589956;31;33942;-70
2023/09/15 13:24:22;;;;;;;3.90;1.42;;;;;;;28.76;45.64;100686.25;5589833;31;33872;-70
2023/09/15 13:27:25;;;;;;;3.08;1.50;;;;;;;33.00;37.97;100688.00;5589629;31;34588;-69
2023/09/15 13:30:28;;;;;;;13.15;1.65;;;;;;;33.29;35.66;100684.87;5590048;31;33787;-71
2023/09/15 13:33:31;;;;;;;8.32;1.50;;;;;;;34.39;33.81;100693.34;5589741;31;33892;-70
2023/09/15 13:36:34;;;;;;;11.65;1.60;;;;;;;34.03;34.16;100691.53;5589600;31;35374;-70
2023/09/15 13:39:39;;;;;;;2.35;1.45;;;;;;;33.88;33.94;100686.44;5589398;31;33812;-71
2023/09/15 13:42:42;;;;;;;3.20;1.50;;;;;;;35.06;32.31;100681.97;5588783;31;34581;-70
2023/09/15 13:45:55;;;;;;;4.22;2.78;;;;;;;34.44;32.13;100671.97;5589370;31;34564;-72
2023/09/15 13:48:59;;;;;;;3.10;1.62;;;;;;;35.55;30.90;100678.72;5588853;31;34626;-71
2023/09/15 13:52:03;;;;;;;3.70;1.48;;;;;;;33.73;33.02;100673.09;5589171;31;33929;-71
2023/09/15 13:55:08;;;;;;;4.55;1.20;;;;;;;33.18;34.00;100672.50;5589335;31;34571;-71
2023/09/15 13:58:10;;;;;;;2.62;1.40;;;;;;;31.33;36.04;100657.41;5589397;31;33978;-72
2023/09/15 14:01:13;;;;;;;4.28;1.50;;;;;;;32.71;33.98;100665.59;5589235;31;33856;-71
2023/09/15 14:04:17;;;;;;;3.60;1.37;;;;;;;30.97;37.59;100651.63;5589518;31;34042;-72
2023/09/15 14:07:20;;;;;;;7.37;1.52;;;;;;;31.58;36.88;100654.28;5588855;31;33904;-72
2023/09/15 14:10:23;;;;;;;3.20;1.60;;;;;;;33.08;35.32;100651.53;5589186;31;33836;-71